Oklaunion, Texas
Current Conditions -  °F | °C
As of 9:16 AM on Thursday 23 Oct 2014 (Local Time) from KF05 Reporting Station
Overcast Overcast  
Wind Chill: 61°   Ceiling: 100
Heat Index: 61°   Visibility: 0.25mi
Dew Point: 61°   Wind: 3mph
Humidity: 100%   Direction: 160°SSE
Pressure: 30.13"   Gusts: NA
Location:  34.13°N, 99.14°W
Report Text: KF05 231416Z AUTO 16003KT 1/4SM OVC001 16/16 A3013 RMK AO2
Loading
Personal Weather Stations






























Interactive Weather Map
Tropical Storm Tracking
New forecast layout! Learn more

10-Day Weather Forecast

Advertisements
Track Severe Weather on mobile